Time;durP1;ratioP1;P1;durP2;ratioP2;P2;SDS_P1;SDS_P2;PMS_P1;PMS_P2;Temp;Humidity;BMP_temperature;BMP_pressure;BME280_temperature;BME280_humidity;BME280_pressure;Samples;Min_cycle;Max_cycle;Signal;HPM_P1;HPM_P2
2023/05/03 00:00:25;;;;;;;1.67;0.93;;;7.10;99.90;;;;;;4969100;28;20053;-76
2023/05/03 00:02:52;;;;;;;4.78;1.13;;;7.10;99.90;;;;;;4968868;28;20096;-76
2023/05/03 00:05:19;;;;;;;8.25;1.92;;;7.10;99.90;;;;;;4969137;28;20137;-76
2023/05/03 00:07:45;;;;;;;4.43;1.10;;;7.10;99.90;;;;;;4971609;28;20045;-76
2023/05/03 00:10:12;;;;;;;2.25;0.90;;;7.10;99.90;;;;;;4970068;28;20042;-76
2023/05/03 00:12:39;;;;;;;4.78;1.13;;;7.10;99.90;;;;;;4970668;28;20053;-76
2023/05/03 00:15:06;;;;;;;2.45;0.88;;;7.00;99.90;;;;;;4971072;28;20488;-76
2023/05/03 00:17:32;;;;;;;2.22;1.27;;;7.00;99.90;;;;;;4953433;28;20331;-76
2023/05/03 00:19:58;;;;;;;2.97;1.00;;;7.00;99.90;;;;;;4941456;28;20827;-76
2023/05/03 00:22:24;;;;;;;4.03;1.08;;;7.00;99.90;;;;;;4969162;28;20332;-76
2023/05/03 00:24:50;;;;;;;3.67;1.10;;;7.10;99.90;;;;;;4970602;28;20475;-76
2023/05/03 00:27:17;;;;;;;3.28;1.13;;;7.00;99.90;;;;;;4969351;28;20685;-76
2023/05/03 00:29:42;;;;;;;11.65;1.45;;;7.00;99.90;;;;;;4970507;28;20054;-77
2023/05/03 00:32:09;;;;;;;3.28;1.10;;;7.00;99.90;;;;;;4970458;28;20046;-76
2023/05/03 00:34:36;;;;;;;2.42;0.98;;;7.00;99.90;;;;;;4969401;28;20085;-76
2023/05/03 00:37:02;;;;;;;1.90;1.13;;;7.10;99.90;;;;;;4970296;28;20034;-76
2023/05/03 00:39:31;;;;;;;2.13;0.90;;;7.10;99.90;;;;;;4984989;28;20056;-76
2023/05/03 00:41:58;;;;;;;1.60;0.95;;;7.10;99.90;;;;;;4970680;28;20132;-76
2023/05/03 00:44:24;;;;;;;2.70;0.90;;;7.10;99.90;;;;;;4968721;28;20066;-76
2023/05/03 00:46:50;;;;;;;4.22;1.05;;;7.10;99.90;;;;;;4951068;28;20568;-76
2023/05/03 00:49:16;;;;;;;4.72;1.30;;;7.10;99.90;;;;;;4966635;28;20058;-76
2023/05/03 00:51:42;;;;;;;2.42;1.10;;;7.10;99.90;;;;;;4966708;28;20105;-77
2023/05/03 00:54:09;;;;;;;4.95;1.10;;;7.10;99.90;;;;;;4967773;28;20051;-76
2023/05/03 00:56:36;;;;;;;1.73;1.00;;;7.10;99.90;;;;;;4965649;28;20047;-76
2023/05/03 00:59:02;;;;;;;4.57;1.20;;;7.10;99.90;;;;;;4967402;28;20054;-76
2023/05/03 01:01:29;;;;;;;3.40;1.50;;;7.20;99.90;;;;;;4965595;28;20501;-76
2023/05/03 01:03:55;;;;;;;5.07;1.77;;;7.20;99.90;;;;;;4967101;28;20481;-76
2023/05/03 01:06:33;;;;;;;4.63;2.10;;;7.20;99.90;;;;;;4967193;28;20493;-76
2023/05/03 01:09:02;;;;;;;2.55;1.48;;;7.20;99.90;;;;;;4970149;28;20101;-76
2023/05/03 01:12:09;;;;;;;3.05;0.93;;;7.20;99.90;;;;;;4971235;28;20043;-76
2023/05/03 01:15:01;;;;;;;1.42;0.93;;;7.20;99.90;;;;;;4968762;28;20046;-76
2023/05/03 01:17:31;;;;;;;4.50;1.38;;;7.20;99.90;;;;;;4969875;28;20054;-76
2023/05/03 01:20:03;;;;;;;4.47;1.00;;;7.20;99.90;;;;;;4971490;28;20501;-76
2023/05/03 01:22:55;;;;;;;5.57;1.00;;;7.20;99.90;;;;;;4969083;28;20043;-76
2023/05/03 01:25:21;;;;;;;3.75;1.23;;;7.20;99.90;;;;;;4972388;28;20520;-76
2023/05/03 01:27:46;;;;;;;5.25;1.08;;;7.20;99.90;;;;;;4969427;28;20094;-76
2023/05/03 01:30:13;;;;;;;5.10;1.30;;;7.20;99.90;;;;;;4970680;28;20055;-76
2023/05/03 01:32:45;;;;;;;8.70;1.55;;;7.10;99.90;;;;;;4953509;28;20043;-76
2023/05/03 01:35:39;;;;;;;3.00;0.95;;;7.10;99.90;;;;;;4969731;28;20057;-76
2023/05/03 01:38:06;;;;;;;3.13;0.90;;;7.10;99.90;;;;;;4970609;28;20054;-76
2023/05/03 01:40:39;;;;;;;0.60;0.55;;;7.10;99.90;;;;;;4968470;28;20097;-76
2023/05/03 01:43:07;;;;;;;1.95;0.90;;;7.10;98.50;;;;;;4970542;28;20050;-77
2023/05/03 01:45:32;;;;;;;4.03;0.98;;;7.10;96.00;;;;;;4969530;28;20101;-76
2023/05/03 01:47:58;;;;;;;2.00;0.90;;;7.10;96.80;;;;;;4953399;28;20510;-76
2023/05/03 01:50:24;;;;;;;4.07;1.08;;;7.20;99.50;;;;;;4970335;28;20129;-76
2023/05/03 01:52:52;;;;;;;4.72;0.90;;;7.20;98.50;;;;;;4968314;28;20058;-76
2023/05/03 01:55:18;;;;;;;4.32;0.90;;;7.30;97.70;;;;;;4970402;28;20458;-76
2023/05/03 01:57:43;;;;;;;1.85;0.95;;;7.20;95.60;;;;;;4968491;28;20477;-76
2023/05/03 02:00:10;;;;;;;1.85;0.90;;;7.30;95.70;;;;;;4970382;28;20061;-76
2023/05/03 02:02:36;;;;;;;4.25;1.02;;;7.30;98.20;;;;;;4952990;28;20521;-76
2023/05/03 02:05:02;;;;;;;1.77;0.70;;;7.30;99.90;;;;;;4953544;28;20090;-76
2023/05/03 02:07:28;;;;;;;2.90;0.63;;;7.30;90.60;;;;;;4969969;28;20039;-76
2023/05/03 02:09:54;;;;;;;1.42;0.63;;;7.30;92.40;;;;;;4968853;28;20370;-76
2023/05/03 02:12:20;;;;;;;2.13;0.50;;;7.30;90.30;;;;;;4969762;28;20107;-76
2023/05/03 02:14:46;;;;;;;3.03;0.77;;;7.40;85.00;;;;;;4967981;28;20035;-76
2023/05/03 02:17:12;;;;;;;2.30;0.60;;;7.40;75.80;;;;;;4969473;28;20149;-76
2023/05/03 02:19:37;;;;;;;10.70;0.60;;;7.50;65.10;;;;;;4967793;28;20093;-76
2023/05/03 02:22:03;;;;;;;5.88;0.57;;;7.50;72.10;;;;;;4969960;28;20051;-76
2023/05/03 02:24:29;;;;;;;2.17;0.70;;;7.50;71.00;;;;;;4952974;28;20112;-76
2023/05/03 02:26:55;;;;;;;4.43;0.50;;;7.60;69.40;;;;;;4969432;28;20441;-76
2023/05/03 02:29:21;;;;;;;3.03;0.70;;;7.60;65.80;;;;;;4969974;28;20038;-76
2023/05/03 02:31:47;;;;;;;5.22;0.95;;;7.60;56.20;;;;;;4968242;28;20053;-76
2023/05/03 02:34:13;;;;;;;0.55;0.40;;;7.60;55.80;;;;;;4969515;28;20146;-76
2023/05/03 02:36:38;;;;;;;3.13;0.55;;;7.60;53.30;;;;;;4967698;28;20077;-76
2023/05/03 02:39:04;;;;;;;9.70;1.13;;;7.60;57.00;;;;;;4969508;28;20046;-76
2023/05/03 02:41:30;;;;;;;2.95;0.35;;;7.60;67.30;;;;;;4968370;28;20134;-76
2023/05/03 02:43:56;;;;;;;3.45;0.65;;;7.70;66.50;;;;;;4968867;28;20142;-76
2023/05/03 02:46:22;;;;;;;1.85;0.90;;;7.60;67.90;;;;;;4969147;28;20146;-76
2023/05/03 02:48:47;;;;;;;2.30;0.70;;;7.60;54.60;;;;;;4984068;28;20042;-76
2023/05/03 02:51:13;;;;;;;3.45;0.70;;;7.60;65.60;;;;;;4969700;28;20047;-76
2023/05/03 02:53:39;;;;;;;4.65;0.68;;;7.60;64.10;;;;;;4966903;28;20046;-76
2023/05/03 02:56:05;;;;;;;4.72;0.80;;;7.50;58.30;;;;;;4970050;28;20425;-76
2023/05/03 02:58:31;;;;;;;1.65;0.70;;;7.50;64.10;;;;;;4967570;28;20076;-76
2023/05/03 03:00:57;;;;;;;1.27;0.57;;;7.50;56.00;;;;;;4969459;28;20055;-76
2023/05/03 03:03:22;;;;;;;1.05;0.50;;;7.50;58.70;;;;;;4968593;28;20059;-76
2023/05/03 03:05:48;;;;;;;3.13;0.93;;;7.50;56.40;;;;;;4967684;28;20055;-76
2023/05/03 03:08:14;;;;;;;0.82;0.38;;;7.40;49.60;;;;;;4969163;28;20086;-76
2023/05/03 03:10:39;;;;;;;2.17;0.45;;;7.40;53.30;;;;;;4968329;28;20390;-76
2023/05/03 03:13:05;;;;;;;0.63;0.30;;;7.40;56.50;;;;;;4968228;28;20086;-76
2023/05/03 03:15:31;;;;;;;1.38;0.40;;;7.40;55.00;;;;;;4935314;28;20051;-76
2023/05/03 03:17:57;;;;;;;2.33;0.50;;;7.30;45.40;;;;;;4969092;28;20061;-76
2023/05/03 03:20:23;;;;;;;1.02;0.40;;;7.30;47.20;;;;;;4967685;28;20043;-76
2023/05/03 03:22:48;;;;;;;1.45;0.40;;;7.30;46.20;;;;;;4968226;28;20047;-75
2023/05/03 03:25:14;;;;;;;2.22;0.50;;;7.30;46.50;;;;;;4968243;28;20105;-76
2023/05/03 03:27:40;;;;;;;0.30;0.30;;;7.30;56.00;;;;;;4951146;28;20051;-76
2023/05/03 03:30:08;;;;;;;2.13;0.95;;;7.30;55.30;;;;;;4952582;28;20141;-76
2023/05/03 03:32:34;;;;;;;6.45;0.80;;;7.30;57.30;;;;;;4966930;28;20051;-75
2023/05/03 03:35:00;;;;;;;2.38;0.50;;;7.30;53.10;;;;;;4968852;28;20046;-76
2023/05/03 03:37:25;;;;;;;2.03;0.50;;;7.40;44.30;;;;;;4966514;28;20456;-76
2023/05/03 03:39:52;;;;;;;1.27;0.38;;;7.40;43.60;;;;;;4968020;28;20042;-76
2023/05/03 03:42:19;;;;;;;6.88;0.45;;;7.40;39.20;;;;;;4967897;28;20061;-76
2023/05/03 03:44:45;;;;;;;3.33;0.70;;;7.50;44.30;;;;;;4950957;28;20050;-76
2023/05/03 03:47:11;;;;;;;1.80;0.28;;;7.50;46.10;;;;;;4968412;28;20066;-76
2023/05/03 03:49:36;;;;;;;2.33;0.77;;;7.60;46.80;;;;;;4982949;28;20061;-76
2023/05/03 03:52:02;;;;;;;2.63;0.50;;;7.60;51.10;;;;;;4954827;28;20104;-76
2023/05/03 03:54:28;;;;;;;4.40;0.65;;;7.60;55.00;;;;;;4966579;28;20232;-76
2023/05/03 03:56:53;;;;;;;1.55;0.80;;;7.60;57.50;;;;;;4968132;28;20053;-76
2023/05/03 03:59:19;;;;;;;2.70;0.43;;;7.60;55.20;;;;;;4966290;28;20444;-76
2023/05/03 04:01:45;;;;;;;4.05;0.52;;;7.60;59.80;;;;;;4951169;28;20042;-76
2023/05/03 04:04:11;;;;;;;4.50;0.40;;;7.60;54.60;;;;;;4968227;28;20054;-76
2023/05/03 04:06:39;;;;;;;2.22;0.70;;;7.60;54.90;;;;;;4950315;28;20429;-76
2023/05/03 04:09:05;;;;;;;2.10;0.45;;;7.60;59.80;;;;;;4968080;28;20034;-76
2023/05/03 04:11:31;;;;;;;10.85;1.63;;;7.60;58.60;;;;;;4966432;28;20154;-76
2023/05/03 04:13:57;;;;;;;1.83;0.70;;;7.60;51.80;;;;;;4967629;28;20047;-76
2023/05/03 04:16:22;;;;;;;2.30;0.88;;;7.60;58.50;;;;;;4966210;28;20567;-76
2023/05/03 04:18:48;;;;;;;1.83;0.73;;;7.60;62.60;;;;;;4967883;28;20149;-76
2023/05/03 04:21:14;;;;;;;2.72;0.50;;;7.60;62.30;;;;;;4967151;28;20042;-76
2023/05/03 04:23:40;;;;;;;2.90;0.47;;;7.60;63.10;;;;;;4966286;28;20054;-76
2023/05/03 04:26:11;;;;;;;2.20;0.60;;;7.60;60.40;;;;;;4968908;28;20049;-76
2023/05/03 04:28:39;;;;;;;2.88;0.50;;;7.60;58.60;;;;;;4950433;28;20118;-76
2023/05/03 04:31:05;;;;;;;2.03;0.60;;;7.60;58.00;;;;;;4967376;28;20054;-77
2023/05/03 04:33:32;;;;;;;9.65;0.75;;;7.60;55.80;;;;;;4966286;28;20057;-76
2023/05/03 04:35:57;;;;;;;2.80;0.70;;;7.60;61.50;;;;;;4967380;28;20506;-77
2023/05/03 04:38:23;;;;;;;2.58;0.52;;;7.60;60.30;;;;;;4973762;28;20118;-76
2023/05/03 04:40:49;;;;;;;17.35;2.88;;;7.60;52.00;;;;;;4965658;28;20433;-76
2023/05/03 04:43:15;;;;;;;2.65;0.50;;;7.70;59.80;;;;;;4964809;28;20081;-76
2023/05/03 04:45:41;;;;;;;4.47;0.40;;;7.70;50.20;;;;;;4970969;28;20101;-76
2023/05/03 04:48:06;;;;;;;2.20;0.40;;;7.70;47.00;;;;;;4968913;28;20074;-76
2023/05/03 04:50:35;;;;;;;3.15;0.70;;;7.70;52.00;;;;;;4974486;28;20477;-76
2023/05/03 04:53:01;;;;;;;3.53;0.75;;;7.70;47.80;;;;;;4963919;28;20059;-77
2023/05/03 04:55:27;;;;;;;0.95;0.68;;;7.70;49.90;;;;;;4966615;28;20049;-76
2023/05/03 04:57:54;;;;;;;1.73;0.45;;;7.70;60.60;;;;;;4965670;28;20355;-76
2023/05/03 05:00:22;;;;;;;1.92;0.30;;;7.70;60.20;;;;;;4974473;28;20042;-76
2023/05/03 05:02:47;;;;;;;0.82;0.50;;;7.70;47.80;;;;;;4972760;28;20109;-76
2023/05/03 05:05:13;;;;;;;3.95;0.70;;;7.70;49.70;;;;;;4953300;28;20580;-76
2023/05/03 05:07:39;;;;;;;4.03;0.47;;;7.70;45.70;;;;;;4957189;28;20482;-76
2023/05/03 05:10:06;;;;;;;2.05;0.68;;;7.80;50.00;;;;;;4956489;28;20059;-76
2023/05/03 05:12:31;;;;;;;2.75;0.70;;;7.80;52.30;;;;;;4946507;28;20505;-76
2023/05/03 05:14:57;;;;;;;0.82;0.45;;;7.80;50.70;;;;;;4967251;28;20050;-76
2023/05/03 05:17:25;;;;;;;1.55;0.35;;;7.80;44.90;;;;;;4966170;28;20509;-75
2023/05/03 05:19:51;;;;;;;3.72;0.77;;;7.80;48.80;;;;;;4966242;28;20117;-75
2023/05/03 05:22:18;;;;;;;3.38;0.45;;;7.80;42.30;;;;;;4967057;28;20074;-76
2023/05/03 05:24:44;;;;;;;2.50;0.38;;;7.90;49.70;;;;;;4949382;28;20062;-76
2023/05/03 05:27:10;;;;;;;2.15;0.60;;;7.80;43.70;;;;;;4965815;28;20049;-75
2023/05/03 05:29:35;;;;;;;4.20;0.60;;;7.90;36.20;;;;;;4964848;28;20043;-76
2023/05/03 05:32:03;;;;;;;4.07;0.68;;;7.90;49.30;;;;;;4950115;28;20051;-76
2023/05/03 05:34:30;;;;;;;2.88;0.85;;;7.90;42.70;;;;;;4965531;28;20058;-76
2023/05/03 05:36:56;;;;;;;1.35;0.50;;;7.90;47.20;;;;;;4966337;28;20055;-76
2023/05/03 05:39:22;;;;;;;1.73;0.50;;;7.90;50.50;;;;;;4953042;28;20076;-76
2023/05/03 05:41:48;;;;;;;1.40;0.60;;;8.00;51.60;;;;;;4965544;28;20397;-75
2023/05/03 05:44:14;;;;;;;3.67;0.93;;;8.00;46.40;;;;;;4971866;28;20130;-76
2023/05/03 05:46:40;;;;;;;3.03;0.50;;;7.90;42.10;;;;;;4979916;28;20133;-76
2023/05/03 05:49:06;;;;;;;2.33;0.65;;;8.00;47.20;;;;;;4967273;28;20093;-76
2023/05/03 05:51:31;;;;;;;1.73;0.40;;;8.00;54.10;;;;;;4977740;28;20082;-76
2023/05/03 05:53:57;;;;;;;0.77;0.50;;;8.00;47.10;;;;;;4970759;28;20054;-76
2023/05/03 05:56:23;;;;;;;2.72;0.50;;;8.00;52.20;;;;;;4972354;28;20061;-75
2023/05/03 05:58:49;;;;;;;3.03;0.70;;;8.10;38.10;;;;;;4981541;28;20051;-76
2023/05/03 06:01:15;;;;;;;2.42;0.63;;;8.10;51.30;;;;;;4969905;28;20058;-75
2023/05/03 06:03:41;;;;;;;2.88;0.65;;;8.10;46.60;;;;;;4961590;28;20046;-75
2023/05/03 06:06:07;;;;;;;7.85;0.70;;;8.20;38.60;;;;;;4974733;28;20134;-76
2023/05/03 06:08:32;;;;;;;2.22;0.55;;;8.20;40.80;;;;;;4970397;28;20047;-75
2023/05/03 06:10:58;;;;;;;3.33;0.57;;;8.20;40.40;;;;;;4955115;28;20050;-75
2023/05/03 06:13:25;;;;;;;4.05;0.60;;;8.20;29.50;;;;;;4969076;28;20532;-75
2023/05/03 06:15:50;;;;;;;2.67;0.60;;;8.20;27.10;;;;;;4971722;28;20073;-75
2023/05/03 06:18:16;;;;;;;4.95;0.70;;;8.20;24.50;;;;;;4961777;28;20517;-75
2023/05/03 06:20:42;;;;;;;2.58;0.52;;;8.20;18.80;;;;;;4965178;28;20034;-76
2023/05/03 06:23:07;;;;;;;3.38;0.80;;;8.30;35.10;;;;;;4975608;28;20055;-76
2023/05/03 06:25:35;;;;;;;5.03;0.60;;;8.30;24.00;;;;;;4983808;28;20054;-76
2023/05/03 06:28:00;;;;;;;1.98;0.50;;;8.40;26.50;;;;;;4983428;28;20531;-74
2023/05/03 06:30:27;;;;;;;1.25;0.57;;;8.40;12.70;;;;;;4979433;28;20147;-75
2023/05/03 06:32:53;;;;;;;1.25;0.52;;;8.50;25.40;;;;;;4972861;28;20129;-76
2023/05/03 06:35:20;;;;;;;2.53;0.60;;;8.50;20.90;;;;;;4975906;28;20074;-76
2023/05/03 06:37:46;;;;;;;5.03;0.52;;;8.50;22.00;;;;;;4968439;28;20054;-75
2023/05/03 06:40:12;;;;;;;3.60;0.57;;;8.60;16.80;;;;;;4960421;28;20361;-76
2023/05/03 06:42:38;;;;;;;2.35;0.88;;;8.60;29.30;;;;;;4971749;28;20053;-76
2023/05/03 06:45:06;;;;;;;4.28;0.60;;;8.70;35.20;;;;;;4977988;28;20057;-76
2023/05/03 06:47:32;;;;;;;2.67;0.43;;;8.70;26.30;;;;;;4971600;28;20109;-76
2023/05/03 06:49:57;;;;;;;3.03;1.02;;;8.70;24.20;;;;;;4973258;28;20038;-76
2023/05/03 06:52:23;;;;;;;4.00;0.70;;;8.70;24.10;;;;;;4978232;28;20050;-75
2023/05/03 06:54:49;;;;;;;0.98;0.52;;;8.70;10.90;;;;;;4983683;28;20676;-76
2023/05/03 06:57:15;;;;;;;1.75;0.73;;;8.60;9.10;;;;;;4955822;28;20073;-76
2023/05/03 06:59:41;;;;;;;2.28;0.40;;;8.70;29.80;;;;;;4984267;28;20489;-76
2023/05/03 07:02:07;;;;;;;1.25;0.50;;;8.80;26.80;;;;;;4967957;28;20058;-76
2023/05/03 07:04:33;;;;;;;2.40;0.57;;;8.90;27.10;;;;;;4974950;28;20065;-76
2023/05/03 07:06:58;;;;;;;3.17;0.63;;;8.90;26.60;;;;;;4964835;28;20050;-76
2023/05/03 07:09:24;;;;;;;2.65;0.70;;;9.00;28.80;;;;;;4960919;28;20050;-74
2023/05/03 07:11:50;;;;;;;5.47;0.47;;;9.00;28.80;;;;;;4953402;28;20047;-76
2023/05/03 07:14:16;;;;;;;1.70;0.60;;;9.00;25.50;;;;;;4951394;28;20210;-76
2023/05/03 07:16:42;;;;;;;2.25;0.63;;;9.10;17.10;;;;;;4968237;28;20063;-76
2023/05/03 07:19:08;;;;;;;4.40;0.60;;;9.10;21.00;;;;;;4952460;28;20050;-76
2023/05/03 07:21:34;;;;;;;2.92;0.50;;;9.20;22.00;;;;;;4961756;28;20074;-76
2023/05/03 07:24:00;;;;;;;1.33;0.60;;;9.30;22.60;;;;;;4960001;28;20050;-76
2023/05/03 07:26:26;;;;;;;3.13;0.85;;;9.30;22.60;;;;;;4969710;28;20068;-76
2023/05/03 07:28:52;;;;;;;3.33;0.65;;;9.20;4.90;;;;;;4985226;28;20090;-76
2023/05/03 07:31:19;;;;;;;1.33;0.50;;;9.20;12.30;;;;;;4979361;28;20042;-76
2023/05/03 07:33:45;;;;;;;3.45;0.57;;;9.30;20.10;;;;;;4973609;28;20150;-76
2023/05/03 07:36:11;;;;;;;2.17;0.65;;;9.30;16.40;;;;;;4975319;28;20039;-76
2023/05/03 07:38:37;;;;;;;3.90;0.40;;;9.40;13.20;;;;;;4978936;28;20046;-76
2023/05/03 07:41:03;;;;;;;0.95;0.40;;;9.40;14.60;;;;;;4973467;28;20082;-75
2023/05/03 07:43:29;;;;;;;5.35;0.60;;;9.30;4.70;;;;;;4970845;28;20729;-75
2023/05/03 07:45:55;;;;;;;2.70;0.60;;;9.30;9.30;;;;;;4949099;28;20058;-76
2023/05/03 07:48:21;;;;;;;2.28;0.47;;;9.30;10.30;;;;;;4946463;28;20058;-76
2023/05/03 07:50:47;;;;;;;3.58;0.60;;;9.30;7.50;;;;;;4967792;28;20121;-76
2023/05/03 07:53:13;;;;;;;1.75;0.50;;;9.30;9.60;;;;;;4967665;28;20043;-76
2023/05/03 07:55:39;;;;;;;2.45;0.57;;;9.40;9.70;;;;;;4968241;28;20050;-75
2023/05/03 07:58:04;;;;;;;0.50;0.40;;;9.40;6.60;;;;;;4967430;28;20452;-76
2023/05/03 08:00:30;;;;;;;4.60;0.90;;;9.40;12.00;;;;;;4979792;28;20076;-76
2023/05/03 08:02:56;;;;;;;6.22;0.70;;;9.50;11.70;;;;;;4963009;28;20055;-76
2023/05/03 08:05:22;;;;;;;5.45;0.73;;;9.50;7.10;;;;;;4978020;28;20404;-76
2023/05/03 08:07:48;;;;;;;3.65;0.60;;;9.40;6.80;;;;;;4959973;28;20678;-76
2023/05/03 08:10:15;;;;;;;3.22;1.05;;;9.40;12.20;;;;;;4969503;28;20082;-76
2023/05/03 08:12:41;;;;;;;1.52;0.60;;;9.30;9.40;;;;;;4973747;28;20136;-76
2023/05/03 08:15:07;;;;;;;3.22;0.45;;;9.40;15.80;;;;;;4963330;28;20046;-75
2023/05/03 08:17:44;;;;;;;2.35;0.50;;;9.50;16.40;;;;;;4947568;28;20106;-76
2023/05/03 08:20:11;;;;;;;4.78;0.80;;;9.60;14.50;;;;;;4979863;28;20936;-76
2023/05/03 08:22:40;;;;;;;0.90;0.68;;;9.60;18.50;;;;;;4969340;28;20039;-76
2023/05/03 08:25:06;;;;;;;3.38;0.70;;;9.70;12.40;;;;;;4949344;28;20125;-75
2023/05/03 08:27:32;;;;;;;3.10;0.70;;;9.70;19.10;;;;;;4962658;28;20569;-76
2023/05/03 08:30:02;;;;;;;3.92;0.70;;;9.70;10.90;;;;;;4981181;28;20401;-75
2023/05/03 08:32:29;;;;;;;2.80;0.70;;;9.60;14.10;;;;;;4975219;28;20043;-75
2023/05/03 08:34:55;;;;;;;4.57;0.60;;;9.70;8.60;;;;;;4973746;28;20131;-75
2023/05/03 08:37:21;;;;;;;1.52;0.57;;;9.60;4.30;;;;;;4939599;28;20050;-75
2023/05/03 08:39:47;;;;;;;6.30;1.08;;;9.70;19.40;;;;;;4970161;28;20054;-75
2023/05/03 08:42:14;;;;;;;5.05;0.80;;;9.80;18.40;;;;;;4968781;28;20054;-75
2023/05/03 08:44:47;;;;;;;1.38;0.70;;;9.80;9.90;;;;;;4966828;28;20050;-74
2023/05/03 08:47:15;;;;;;;6.45;0.70;;;9.80;5.40;;;;;;4949599;28;20094;-75
2023/05/03 08:49:42;;;;;;;8.70;0.85;;;9.70;7.30;;;;;;4957482;28;20477;-75
2023/05/03 08:52:10;;;;;;;4.18;0.65;;;9.70;19.50;;;;;;4979113;28;20525;-75
2023/05/03 08:54:37;;;;;;;0.85;0.50;;;9.80;13.40;;;;;;4951036;28;20126;-75
2023/05/03 08:57:03;;;;;;;3.50;0.73;;;10.00;17.00;;;;;;4970616;28;20049;-75
2023/05/03 08:59:29;;;;;;;4.28;0.85;;;10.10;13.60;;;;;;4974698;28;20042;-75
2023/05/03 09:01:54;;;;;;;7.15;0.70;;;10.20;16.70;;;;;;4966027;28;20051;-75
2023/05/03 09:04:33;;;;;;;2.00;0.70;;;10.30;9.30;;;;;;4957340;28;20053;-76
2023/05/03 09:07:18;;;;;;;2.90;0.60;;;10.30;6.10;;;;;;4973597;28;20121;-75
2023/05/03 09:09:45;;;;;;;1.10;0.50;;;10.30;2.60;;;;;;4969318;28;20186;-75
2023/05/03 09:12:11;;;;;;;1.20;0.75;;;10.30;1.00;;;;;;4967901;28;20065;-75
2023/05/03 09:14:46;;;;;;;3.90;0.75;;;10.20;1.30;;;;;;4968806;28;20034;-75
2023/05/03 09:17:18;;;;;;;8.15;0.75;;;10.20;3.10;;;;;;4967967;28;20082;-75
2023/05/03 09:19:54;;;;;;;2.63;0.90;;;10.20;4.20;;;;;;4970185;28;20054;-75
2023/05/03 09:22:24;;;;;;;3.50;0.60;;;10.20;6.20;;;;;;4960410;28;20844;-75
2023/05/03 09:24:58;;;;;;;4.57;0.85;;;10.10;6.00;;;;;;4972237;28;20038;-75
2023/05/03 09:27:25;;;;;;;2.20;0.68;;;10.00;10.00;;;;;;4963668;28;20062;-75
2023/05/03 09:29:52;;;;;;;2.75;0.50;;;10.00;6.10;;;;;;4953777;28;20524;-76
2023/05/03 09:32:18;;;;;;;2.13;0.70;;;10.10;4.70;;;;;;4969105;28;20126;-75
2023/05/03 09:34:44;;;;;;;2.38;0.40;;;10.00;1.00;;;;;;4969870;28;20047;-74
2023/05/03 09:37:13;;;;;;;3.17;0.60;;;9.90;1.00;;;;;;4970350;28;20089;-75
2023/05/03 09:39:40;;;;;;;4.57;0.85;;;9.90;1.00;;;;;;4969781;28;20043;-74
2023/05/03 09:42:13;;;;;;;4.22;0.88;;;9.90;1.00;;;;;;4955287;28;20143;-74
2023/05/03 09:44:47;;;;;;;3.63;0.60;;;9.90;1.00;;;;;;4955963;28;20087;-75
2023/05/03 09:47:13;;;;;;;1.30;0.50;;;9.80;1.00;;;;;;4970263;28;20088;-75
2023/05/03 09:49:39;;;;;;;2.22;0.88;;;9.90;1.00;;;;;;4967503;28;20097;-75
2023/05/03 09:52:07;;;;;;;1.38;0.50;;;10.00;9.90;;;;;;4936108;28;20142;-75
2023/05/03 09:54:36;;;;;;;2.58;0.80;;;10.20;1.00;;;;;;4946933;28;20386;-74
2023/05/03 09:57:06;;;;;;;5.93;0.67;;;10.30;1.00;;;;;;4952254;28;20051;-75
2023/05/03 09:59:37;;;;;;;2.85;0.68;;;10.20;1.80;;;;;;4946659;28;20120;-74
2023/05/03 10:02:04;;;;;;;;;;;10.20;1.00;;;;;;4969089;28;20046;-74
2023/05/03 10:04:49;;;;;;;4.57;0.60;;;10.00;1.00;;;;;;4969199;28;20014;-75
2023/05/03 10:07:17;;;;;;;1.38;0.55;;;10.00;1.70;;;;;;4971615;28;20047;-75
2023/05/03 10:09:45;;;;;;;8.43;0.90;;;10.10;1.00;;;;;;4956839;28;20043;-74
2023/05/03 10:12:12;;;;;;;2.67;0.60;;;10.10;1.00;;;;;;4962684;28;20042;-74
2023/05/03 10:14:43;;;;;;;3.67;0.68;;;10.10;1.80;;;;;;4966321;28;20138;-75
2023/05/03 10:17:22;;;;;;;4.35;0.60;;;10.10;1.00;;;;;;4970170;28;20042;-75
2023/05/03 10:20:03;;;;;;;3.20;0.50;;;10.20;1.00;;;;;;4974731;28;20404;-74
2023/05/03 10:22:30;;;;;;;2.72;0.70;;;10.10;1.00;;;;;;4978838;28;20081;-75
2023/05/03 10:24:59;;;;;;;5.97;0.88;;;10.10;1.00;;;;;;4980330;28;20062;-75
2023/05/03 10:27:35;;;;;;;1.88;0.68;;;10.20;7.40;;;;;;4962411;28;20054;-75
2023/05/03 10:30:02;;;;;;;1.25;0.60;;;10.20;4.60;;;;;;4960154;28;20429;-75
2023/05/03 10:32:41;;;;;;;3.63;1.10;;;10.30;5.30;;;;;;4955407;28;20501;-75
2023/05/03 10:35:09;;;;;;;2.83;0.85;;;10.30;1.00;;;;;;4964315;28;20099;-75
2023/05/03 10:37:35;;;;;;;4.20;0.77;;;10.50;4.00;;;;;;4966408;28;20489;-75
2023/05/03 10:40:14;;;;;;;2.80;0.70;;;10.50;7.10;;;;;;4968874;28;20125;-74
2023/05/03 10:42:59;;;;;;;4.13;0.95;;;10.50;1.00;;;;;;4970500;28;20045;-74
2023/05/03 10:45:27;;;;;;;2.92;0.60;;;10.50;1.00;;;;;;4970223;28;20043;-75
2023/05/03 10:48:11;;;;;;;2.75;0.80;;;10.30;3.20;;;;;;4970907;28;20038;-75
2023/05/03 10:50:40;;;;;;;3.92;0.70;;;10.20;9.00;;;;;;4971048;28;20407;-74
2023/05/03 10:53:05;;;;;;;3.15;0.70;;;10.30;5.20;;;;;;4956000;28;20031;-74
2023/05/03 10:55:32;;;;;;;3.70;0.55;;;10.30;1.00;;;;;;4976247;28;20141;-74
2023/05/03 10:57:59;;;;;;;2.95;0.57;;;10.20;3.10;;;;;;4981637;28;20046;-75
2023/05/03 11:00:40;;;;;;;5.80;0.63;;;10.20;8.10;;;;;;4990634;28;20073;-75
2023/05/03 11:03:09;;;;;;;2.88;0.80;;;10.10;5.90;;;;;;4973004;28;20061;-75
2023/05/03 11:05:36;;;;;;;0.57;0.38;;;10.10;12.70;;;;;;4975714;28;20408;-75
2023/05/03 11:08:21;;;;;;;2.65;0.65;;;10.10;5.90;;;;;;4972252;28;20436;-74
2023/05/03 11:10:55;;;;;;;2.53;0.75;;;10.10;15.00;;;;;;4954821;28;20055;-75
2023/05/03 11:13:21;;;;;;;7.07;0.65;;;10.20;12.90;;;;;;4973473;28;20034;-75
2023/05/03 11:15:47;;;;;;;1.23;0.60;;;10.30;12.50;;;;;;4970741;28;20065;-75
2023/05/03 11:18:13;;;;;;;4.97;0.43;;;10.40;12.00;;;;;;4971637;28;20583;-75
2023/05/03 11:20:39;;;;;;;2.58;0.60;;;10.50;11.30;;;;;;4954858;28;20046;-74
2023/05/03 11:23:06;;;;;;;2.92;0.60;;;10.60;10.30;;;;;;4972817;28;20046;-75
2023/05/03 11:25:32;;;;;;;3.88;0.68;;;10.60;8.40;;;;;;4972523;28;20054;-75
2023/05/03 11:28:03;;;;;;;3.03;0.63;;;10.60;10.40;;;;;;4973364;28;20762;-75
2023/05/03 11:30:31;;;;;;;3.13;0.65;;;10.70;6.40;;;;;;4954718;28;20129;-75
2023/05/03 11:32:58;;;;;;;0.65;0.57;;;10.70;13.10;;;;;;4958270;28;20544;-74
2023/05/03 11:35:25;;;;;;;2.47;0.60;;;10.70;8.70;;;;;;4971765;28;20389;-75
2023/05/03 11:37:53;;;;;;;0.85;0.45;;;10.70;1.00;;;;;;4987684;28;20602;-74
2023/05/03 11:40:19;;;;;;;8.60;0.80;;;10.60;8.50;;;;;;4973119;28;20491;-74
2023/05/03 11:42:55;;;;;;;2.08;0.55;;;10.60;5.30;;;;;;4977074;28;20034;-75
2023/05/03 11:45:32;;;;;;;2.20;1.00;;;10.50;5.50;;;;;;4963021;28;20423;-74
2023/05/03 11:47:58;;;;;;;2.72;0.65;;;10.60;2.40;;;;;;4981456;28;20480;-74
2023/05/03 11:50:44;;;;;;;6.82;0.50;;;10.60;1.40;;;;;;4942451;28;20085;-74
2023/05/03 11:53:12;;;;;;;2.08;0.68;;;10.60;6.40;;;;;;4974936;28;20169;-74
2023/05/03 11:55:45;;;;;;;5.70;0.90;;;10.60;1.00;;;;;;4983951;28;20046;-74
2023/05/03 11:58:25;;;;;;;2.28;0.70;;;10.60;1.90;;;;;;4972642;28;20078;-74
2023/05/03 12:00:55;;;;;;;1.05;0.40;;;10.60;1.00;;;;;;4975192;28;20054;-74
2023/05/03 12:03:30;;;;;;;8.38;0.40;;;10.60;1.80;;;;;;4966198;28;20134;-74
2023/05/03 12:05:56;;;;;;;4.22;0.73;;;10.60;7.10;;;;;;4984652;28;20511;-74
2023/05/03 12:08:31;;;;;;;1.63;0.60;;;10.60;1.00;;;;;;4977063;28;20045;-74
2023/05/03 12:11:00;;;;;;;2.13;0.80;;;10.70;1.00;;;;;;4971477;28;20132;-74
2023/05/03 12:13:35;;;;;;;2.60;0.97;;;10.70;4.80;;;;;;4970638;28;20057;-74
2023/05/03 12:16:05;;;;;;;3.42;0.68;;;10.80;4.20;;;;;;4954203;28;20347;-74
2023/05/03 12:18:52;;;;;;;2.90;0.85;;;11.00;2.40;;;;;;4968425;28;20137;-74
2023/05/03 12:21:19;;;;;;;1.73;1.05;;;11.00;9.00;;;;;;4970051;28;20089;-73
2023/05/03 12:23:45;;;;;;;2.25;0.52;;;10.90;1.00;;;;;;4970272;28;20437;-74
2023/05/03 12:26:11;;;;;;;3.47;0.90;;;10.70;1.00;;;;;;4983127;28;20054;-74
2023/05/03 12:28:37;;;;;;;2.33;0.60;;;10.80;12.50;;;;;;4978460;28;20056;-74
2023/05/03 12:31:03;;;;;;;3.17;0.68;;;11.00;6.30;;;;;;4974760;28;20054;-74
2023/05/03 12:33:29;;;;;;;3.20;1.08;;;11.20;8.50;;;;;;4972067;28;20046;-74
2023/05/03 12:35:55;;;;;;;2.40;0.80;;;11.60;7.40;;;;;;4969558;28;20046;-73
2023/05/03 12:38:22;;;;;;;3.35;0.95;;;11.80;12.80;;;;;;4978103;28;20055;-74
2023/05/03 12:40:47;;;;;;;2.22;0.70;;;11.70;2.70;;;;;;4970661;28;20142;-73
2023/05/03 12:43:13;;;;;;;7.72;0.90;;;11.60;3.50;;;;;;4978356;28;20046;-74
2023/05/03 12:45:39;;;;;;;2.65;0.82;;;11.50;5.00;;;;;;4977364;28;20806;-74
2023/05/03 12:48:05;;;;;;;2.05;0.73;;;11.50;5.70;;;;;;4978058;28;20488;-74
2023/05/03 12:50:30;;;;;;;2.78;0.98;;;11.60;1.00;;;;;;4964085;28;20057;-74
2023/05/03 12:52:57;;;;;;;1.85;0.98;;;11.70;2.10;;;;;;4969435;28;20197;-73
2023/05/03 12:55:22;;;;;;;1.80;1.02;;;11.60;1.50;;;;;;4980199;28;20045;-74
2023/05/03 12:57:48;;;;;;;4.40;1.00;;;11.60;3.00;;;;;;4977591;28;20046;-74
2023/05/03 13:00:16;;;;;;;1.75;0.82;;;11.70;5.60;;;;;;4968926;28;20245;-73